sensor_id;sensor_type;location;lat;lon;timestamp;pressure;altitude;pressure_sealevel;temperature;humidity
3832;BME280;12460;42.662;23.288;2023-04-03T00:04:06;93915.78;;;10.63;50.80
3832;BME280;12460;42.662;23.288;2023-04-03T00:19:10;93901.88;;;10.65;50.65
3832;BME280;12460;42.662;23.288;2023-04-03T00:34:14;93898.47;;;10.57;51.04
3832;BME280;12460;42.662;23.288;2023-04-03T00:49:18;93900.75;;;10.41;51.65
3832;BME280;12460;42.662;23.288;2023-04-03T01:04:35;93920.97;;;10.30;51.80
3832;BME280;12460;42.662;23.288;2023-04-03T01:19:45;93919.13;;;10.15;52.19
3832;BME280;12460;42.662;23.288;2023-04-03T01:34:58;93903.34;;;9.93;53.06
3832;BME280;12460;42.662;23.288;2023-04-03T01:50:03;93905.47;;;9.75;53.37
3832;BME280;12460;42.662;23.288;2023-04-03T02:05:10;93901.44;;;9.69;53.43
3832;BME280;12460;42.662;23.288;2023-04-03T02:20:15;93917.13;;;9.55;54.28
3832;BME280;12460;42.662;23.288;2023-04-03T02:35:20;93913.94;;;9.07;55.56
3832;BME280;12460;42.662;23.288;2023-04-03T02:50:25;93898.50;;;8.81;56.05
3832;BME280;12460;42.662;23.288;2023-04-03T03:05:31;93883.34;;;9.01;55.91
3832;BME280;12460;42.662;23.288;2023-04-03T03:20:35;93876.44;;;8.85;56.22
3832;BME280;12460;42.662;23.288;2023-04-03T03:35:40;93881.69;;;8.81;56.34
3832;BME280;12460;42.662;23.288;2023-04-03T03:50:47;93882.50;;;8.74;56.85
3832;BME280;12460;42.662;23.288;2023-04-03T04:05:53;93890.19;;;8.74;56.82
3832;BME280;12460;42.662;23.288;2023-04-03T04:20:58;93906.34;;;8.83;56.80
3832;BME280;12460;42.662;23.288;2023-04-03T04:36:03;93904.13;;;8.98;57.16
3832;BME280;12460;42.662;23.288;2023-04-03T04:51:10;93915.94;;;9.31;56.65
3832;BME280;12460;42.662;23.288;2023-04-03T05:06:16;93926.88;;;9.54;56.24
3832;BME280;12460;42.662;23.288;2023-04-03T05:21:22;93951.50;;;9.90;55.87
3832;BME280;12460;42.662;23.288;2023-04-03T05:36:27;93951.34;;;10.41;54.52
3832;BME280;12460;42.662;23.288;2023-04-03T05:51:38;93938.19;;;10.80;53.89
3832;BME280;12460;42.662;23.288;2023-04-03T06:06:57;93925.38;;;11.53;52.15
3832;BME280;12460;42.662;23.288;2023-04-03T06:22:02;93906.47;;;12.23;49.95
3832;BME280;12460;42.662;23.288;2023-04-03T06:37:14;93916.78;;;13.10;47.86
3832;BME280;12460;42.662;23.288;2023-04-03T06:52:19;93928.41;;;12.95;47.17
3832;BME280;12460;42.662;23.288;2023-04-03T07:07:24;93943.19;;;12.84;47.95
3832;BME280;12460;42.662;23.288;2023-04-03T07:22:30;93918.19;;;13.42;46.65
3832;BME280;12460;42.662;23.288;2023-04-03T07:37:35;93911.28;;;14.32;45.32
3832;BME280;12460;42.662;23.288;2023-04-03T07:52:39;93884.22;;;15.21;43.11
3832;BME280;12460;42.662;23.288;2023-04-03T08:07:43;93881.63;;;15.25;42.34
3832;BME280;12460;42.662;23.288;2023-04-03T08:22:48;93862.47;;;15.01;42.13
3832;BME280;12460;42.662;23.288;2023-04-03T08:37:52;93858.91;;;14.54;43.59
3832;BME280;12460;42.662;23.288;2023-04-03T08:52:58;93843.66;;;14.47;43.47
3832;BME280;12460;42.662;23.288;2023-04-03T09:08:18;93831.53;;;14.00;45.99
3832;BME280;12460;42.662;23.288;2023-04-03T09:23:29;93808.06;;;13.54;45.92
3832;BME280;12460;42.662;23.288;2023-04-03T09:38:35;93789.84;;;13.78;45.66
3832;BME280;12460;42.662;23.288;2023-04-03T09:53:43;93780.91;;;14.05;42.64
3832;BME280;12460;42.662;23.288;2023-04-03T10:09:00;93774.09;;;13.75;43.50
3832;BME280;12460;42.662;23.288;2023-04-03T10:24:18;93763.72;;;13.45;44.05
3832;BME280;12460;42.662;23.288;2023-04-03T11:10:25;93757.53;;;13.04;48.00
3832;BME280;12460;42.662;23.288;2023-04-03T11:25:41;93753.25;;;12.18;54.31
3832;BME280;12460;42.662;23.288;2023-04-03T11:40:47;93744.56;;;11.74;60.58
3832;BME280;12460;42.662;23.288;2023-04-03T11:55:59;93747.16;;;11.41;63.48
3832;BME280;12460;42.662;23.288;2023-04-03T12:11:19;93759.09;;;10.73;66.86
3832;BME280;12460;42.662;23.288;2023-04-03T12:57:53;93679.22;;;9.72;73.38
3832;BME280;12460;42.662;23.288;2023-04-03T13:13:14;93687.16;;;9.57;74.61
3832;BME280;12460;42.662;23.288;2023-04-03T13:28:29;93673.66;;;9.36;75.74
3832;BME280;12460;42.662;23.288;2023-04-03T13:43:36;93675.31;;;9.12;77.00
3832;BME280;12460;42.662;23.288;2023-04-03T13:58:54;93656.41;;;9.03;77.64
3832;BME280;12460;42.662;23.288;2023-04-03T14:14:01;93659.88;;;8.94;78.30
3832;BME280;12460;42.662;23.288;2023-04-03T14:29:09;93651.94;;;9.00;76.50
3832;BME280;12460;42.662;23.288;2023-04-03T14:44:14;93656.44;;;8.86;74.89
3832;BME280;12460;42.662;23.288;2023-04-03T14:59:19;93631.59;;;8.73;76.12
3832;BME280;12460;42.662;23.288;2023-04-03T15:14:25;93616.22;;;8.65;75.73
3832;BME280;12460;42.662;23.288;2023-04-03T15:29:40;93601.94;;;8.70;75.88
3832;BME280;12460;42.662;23.288;2023-04-03T15:44:45;93595.06;;;8.54;77.37
3832;BME280;12460;42.662;23.288;2023-04-03T15:59:50;93579.09;;;8.47;78.68
3832;BME280;12460;42.662;23.288;2023-04-03T16:14:54;93567.69;;;8.35;78.34
3832;BME280;12460;42.662;23.288;2023-04-03T16:29:59;93564.56;;;8.31;78.91
3832;BME280;12460;42.662;23.288;2023-04-03T16:45:05;93502.69;;;8.37;76.58
3832;BME280;12460;42.662;23.288;2023-04-03T17:00:11;93463.94;;;8.16;75.64
3832;BME280;12460;42.662;23.288;2023-04-03T17:15:16;93443.13;;;8.10;75.84
3832;BME280;12460;42.662;23.288;2023-04-03T17:30:21;93448.78;;;8.19;76.58
3832;BME280;12460;42.662;23.288;2023-04-03T17:45:25;93430.56;;;8.28;77.57
3832;BME280;12460;42.662;23.288;2023-04-03T18:00:30;93413.59;;;8.26;77.21
3832;BME280;12460;42.662;23.288;2023-04-03T18:15:35;93416.22;;;8.24;75.82
3832;BME280;12460;42.662;23.288;2023-04-03T18:30:46;93392.41;;;8.32;76.12
3832;BME280;12460;42.662;23.288;2023-04-03T18:45:51;93398.78;;;8.42;75.15
3832;BME280;12460;42.662;23.288;2023-04-03T19:00:55;93372.16;;;8.24;75.75
3832;BME280;12460;42.662;23.288;2023-04-03T19:15:59;93334.47;;;8.35;74.89
3832;BME280;12460;42.662;23.288;2023-04-03T19:31:13;93340.38;;;8.29;76.19
3832;BME280;12460;42.662;23.288;2023-04-03T19:46:22;93313.69;;;8.28;76.47
3832;BME280;12460;42.662;23.288;2023-04-03T20:01:28;93312.41;;;8.03;78.17
3832;BME280;12460;42.662;23.288;2023-04-03T20:16:33;93317.00;;;8.08;78.56
3832;BME280;12460;42.662;23.288;2023-04-03T20:31:38;93289.59;;;8.06;79.03
3832;BME280;12460;42.662;23.288;2023-04-03T20:46:44;93303.91;;;8.10;79.10
3832;BME280;12460;42.662;23.288;2023-04-03T21:01:55;93326.75;;;8.16;78.91
3832;BME280;12460;42.662;23.288;2023-04-03T21:32:07;93247.31;;;8.02;80.01
3832;BME280;12460;42.662;23.288;2023-04-03T21:47:11;93200.16;;;7.99;79.66
3832;BME280;12460;42.662;23.288;2023-04-03T22:02:16;93197.09;;;8.04;79.55
3832;BME280;12460;42.662;23.288;2023-04-03T22:17:23;93202.66;;;7.95;80.20
3832;BME280;12460;42.662;23.288;2023-04-03T22:32:28;93177.00;;;7.89;81.60
3832;BME280;12460;42.662;23.288;2023-04-03T22:47:32;93146.97;;;7.80;81.20
3832;BME280;12460;42.662;23.288;2023-04-03T23:02:36;93147.28;;;7.74;82.17
3832;BME280;12460;42.662;23.288;2023-04-03T23:17:40;93135.63;;;7.58;82.10
3832;BME280;12460;42.662;23.288;2023-04-03T23:32:44;93129.59;;;7.81;82.24
3832;BME280;12460;42.662;23.288;2023-04-03T23:47:47;93091.59;;;7.88;82.29
